createdAt,value
2022-08-08T00:02:03.158Z,0.20
2022-08-08T00:04:16.284Z,0.30
2022-08-08T00:07:00.602Z,0.52
2022-08-08T00:09:42.293Z,0.30
2022-08-08T00:12:10.688Z,0.30
2022-08-08T00:14:58.985Z,0.30
2022-08-08T00:17:26.920Z,0.20
2022-08-08T00:20:03.583Z,0.40
2022-08-08T00:22:40.357Z,0.30
2022-08-08T00:25:10.633Z,0.20
2022-08-08T00:27:37.991Z,0.20
2022-08-08T00:30:11.259Z,0.40
2022-08-08T00:32:48.150Z,0.28
2022-08-08T00:35:21.924Z,0.22
2022-08-08T00:38:06.822Z,0.20
2022-08-08T00:41:07.589Z,0.20
2022-08-08T00:43:56.054Z,0.20
2022-08-08T00:46:56.803Z,0.25
2022-08-08T00:49:25.007Z,0.28
2022-08-08T00:52:04.675Z,0.30
2022-08-08T00:54:31.334Z,0.30
2022-08-08T00:57:04.330Z,0.22
2022-08-08T00:59:44.735Z,0.40
2022-08-08T01:03:53.959Z,0.20
2022-08-08T01:05:29.257Z,0.50
2022-08-08T01:08:05.901Z,0.30
2022-08-08T01:10:50.736Z,0.30
2022-08-08T01:13:43.298Z,0.30
2022-08-08T01:16:29.487Z,0.32
2022-08-08T01:19:42.271Z,0.30
2022-08-08T01:22:23.607Z,0.30
2022-08-08T01:25:14.365Z,0.30
2022-08-08T01:28:02.341Z,0.20
2022-08-08T01:30:47.416Z,0.20
2022-08-08T01:33:28.000Z,0.30
2022-08-08T01:36:12.179Z,0.30
2022-08-08T01:38:57.332Z,0.30
2022-08-08T01:41:43.858Z,0.30
2022-08-08T01:44:10.374Z,0.32
2022-08-08T01:46:39.975Z,0.38
2022-08-08T01:49:23.402Z,0.40
2022-08-08T01:53:03.735Z,0.30
2022-08-08T01:56:26.279Z,0.40
2022-08-08T01:58:38.871Z,0.30
2022-08-08T02:02:00.153Z,0.30
2022-08-08T02:04:21.243Z,0.25
2022-08-08T02:06:54.586Z,0.32
2022-08-08T02:10:02.845Z,0.30
2022-08-08T02:12:25.081Z,0.20
2022-08-08T02:14:59.493Z,0.30
2022-08-08T02:17:36.472Z,0.30
2022-08-08T02:21:01.612Z,0.20
2022-08-08T02:23:16.201Z,0.30
2022-08-08T02:26:03.382Z,0.30
2022-08-08T02:28:42.008Z,0.30
2022-08-08T02:31:58.013Z,0.35
2022-08-08T02:34:33.379Z,0.40
2022-08-08T02:37:05.747Z,0.30
2022-08-08T02:40:12.163Z,0.28
2022-08-08T02:42:42.187Z,0.47
2022-08-08T02:45:18.593Z,0.20
2022-08-08T02:48:16.869Z,0.40
2022-08-08T02:51:12.910Z,0.30
2022-08-08T02:54:00.528Z,0.30
2022-08-08T02:56:45.460Z,0.30
2022-08-08T02:59:26.061Z,0.30
2022-08-08T03:02:04.712Z,0.20
2022-08-08T03:05:03.589Z,0.30
2022-08-08T03:07:57.908Z,0.20
2022-08-08T03:10:32.537Z,0.20
2022-08-08T03:13:07.442Z,0.25
2022-08-08T03:16:34.344Z,0.28
2022-08-08T03:19:02.539Z,0.20
2022-08-08T03:21:54.872Z,0.20
2022-08-08T03:24:17.777Z,0.25
2022-08-08T03:26:52.208Z,0.20
2022-08-08T03:29:54.867Z,0.20
2022-08-08T03:32:30.331Z,0.30
2022-08-08T03:34:57.323Z,0.30
2022-08-08T03:37:59.926Z,0.30
2022-08-08T03:40:10.953Z,0.20
2022-08-08T03:42:56.652Z,0.30
2022-08-08T03:46:05.003Z,0.40
2022-08-08T03:48:21.156Z,0.20
2022-08-08T03:50:58.887Z,0.30
2022-08-08T03:53:42.562Z,0.30
2022-08-08T03:56:31.268Z,0.30
2022-08-08T03:58:58.798Z,0.20
2022-08-08T04:02:13.620Z,0.20
2022-08-08T04:04:23.146Z,0.40
2022-08-08T04:07:01.257Z,0.20
2022-08-08T04:09:47.204Z,0.20
2022-08-08T04:12:15.932Z,0.30
2022-08-08T04:14:45.218Z,0.20
2022-08-08T04:17:22.340Z,0.17
2022-08-08T04:19:49.511Z,0.20
2022-08-08T04:22:18.450Z,0.30
2022-08-08T04:24:50.793Z,0.20
2022-08-08T04:27:42.779Z,0.20
2022-08-08T04:30:18.219Z,0.28
2022-08-08T04:32:48.256Z,0.30
2022-08-08T04:35:17.442Z,0.20
2022-08-08T04:37:44.798Z,0.20
2022-08-08T04:40:12.608Z,0.20
2022-08-08T04:42:46.689Z,0.20
2022-08-08T04:45:23.098Z,0.30
2022-08-08T04:47:49.690Z,0.28
2022-08-08T04:50:24.780Z,0.20
2022-08-08T04:52:58.648Z,0.20
2022-08-08T04:55:37.633Z,0.30
2022-08-08T04:58:15.244Z,0.30
2022-08-08T05:00:44.377Z,0.30
2022-08-08T05:03:12.436Z,0.40
2022-08-08T05:05:45.428Z,0.30
2022-08-08T05:08:13.775Z,0.22
2022-08-08T05:10:40.222Z,0.28
2022-08-08T05:13:12.902Z,0.32
2022-08-08T05:16:51.209Z,0.30
2022-08-08T05:18:30.971Z,0.20
2022-08-08T05:20:57.500Z,0.30
2022-08-08T05:23:24.952Z,0.30
2022-08-08T05:26:00.083Z,0.40
2022-08-08T05:28:48.366Z,0.30
2022-08-08T05:32:02.202Z,0.20
2022-08-08T05:34:01.023Z,0.20
2022-08-08T05:36:28.839Z,0.30
2022-08-08T05:38:57.116Z,0.35
2022-08-08T05:41:28.487Z,0.50
2022-08-08T05:44:06.248Z,0.30
2022-08-08T05:46:35.702Z,0.43
2022-08-08T05:49:11.414Z,0.40
2022-08-08T05:51:49.188Z,0.30
2022-08-08T05:54:28.636Z,0.30
2022-08-08T05:57:15.146Z,0.40
2022-08-08T05:59:59.303Z,0.40
2022-08-08T06:02:53.919Z,0.40
2022-08-08T06:05:34.925Z,0.30
2022-08-08T06:08:09.349Z,0.30
2022-08-08T06:10:41.880Z,0.38
2022-08-08T06:13:12.456Z,0.40
2022-08-08T06:15:53.359Z,0.32
2022-08-08T06:18:22.406Z,0.20
2022-08-08T06:20:50.823Z,0.32
2022-08-08T06:23:26.390Z,0.30
2022-08-08T06:26:38.169Z,0.40
2022-08-08T06:29:10.631Z,0.50
2022-08-08T06:32:10.149Z,0.38
2022-08-08T06:34:39.455Z,0.30
2022-08-08T06:37:10.710Z,0.30
2022-08-08T06:39:55.887Z,0.45
2022-08-08T06:42:24.180Z,0.40
2022-08-08T06:44:54.955Z,0.40
2022-08-08T06:47:22.842Z,0.40
2022-08-08T06:49:58.435Z,0.32
2022-08-08T06:52:27.816Z,0.25
2022-08-08T06:54:58.724Z,0.40
2022-08-08T06:57:29.094Z,0.43
2022-08-08T07:00:12.271Z,0.52
2022-08-08T07:02:45.308Z,0.30
2022-08-08T07:05:20.256Z,0.35
2022-08-08T07:08:00.217Z,0.45
2022-08-08T07:10:33.231Z,0.30
2022-08-08T07:13:09.593Z,0.40
2022-08-08T07:16:04.782Z,0.30
2022-08-08T07:18:37.179Z,0.30
2022-08-08T07:21:18.977Z,0.43
2022-08-08T07:24:02.372Z,0.40
2022-08-08T07:26:32.998Z,0.30
2022-08-08T07:29:05.495Z,0.35
2022-08-08T07:31:35.860Z,0.40
2022-08-08T07:34:03.539Z,0.45
2022-08-08T07:36:35.753Z,0.30
2022-08-08T07:39:03.763Z,0.50
2022-08-08T07:41:58.658Z,0.30
2022-08-08T07:44:37.263Z,0.40
2022-08-08T07:47:05.457Z,0.50
2022-08-08T07:49:32.357Z,0.20
2022-08-08T07:51:59.400Z,0.30
2022-08-08T07:54:34.162Z,0.30
2022-08-08T07:57:01.866Z,0.30
2022-08-08T07:59:37.802Z,0.30
2022-08-08T08:02:35.445Z,0.32
2022-08-08T08:04:55.602Z,0.30
2022-08-08T08:07:31.718Z,0.20
2022-08-08T08:10:00.147Z,0.40
2022-08-08T08:12:35.512Z,0.40
2022-08-08T08:15:11.516Z,0.30
2022-08-08T08:17:47.729Z,0.30
2022-08-08T08:20:16.121Z,0.20
2022-08-08T08:22:43.229Z,0.20
2022-08-08T08:25:09.740Z,0.20
2022-08-08T08:27:36.975Z,0.32
2022-08-08T08:30:04.341Z,0.20
2022-08-08T08:32:40.985Z,0.30
2022-08-08T08:35:16.094Z,0.30
2022-08-08T08:38:13.118Z,0.25
2022-08-08T08:40:30.899Z,0.20
2022-08-08T08:42:57.770Z,0.30
2022-08-08T08:45:27.359Z,0.32
2022-08-08T08:47:55.070Z,0.40
2022-08-08T08:50:33.851Z,0.20
2022-08-08T08:53:28.136Z,0.20
2022-08-08T08:56:02.572Z,0.20
2022-08-08T09:01:08.525Z,0.25
2022-08-08T09:03:47.850Z,0.30
2022-08-08T09:06:28.423Z,0.13
2022-08-08T09:09:07.289Z,0.20
2022-08-08T09:11:47.824Z,0.10
2022-08-08T09:14:22.980Z,0.30
2022-08-08T09:16:53.486Z,0.30
2022-08-08T09:21:53.913Z,0.20
2022-08-08T09:22:06.850Z,0.20
2022-08-08T09:24:35.815Z,0.10
2022-08-08T09:27:03.640Z,0.30
2022-08-08T09:29:32.393Z,0.20
2022-08-08T09:32:06.306Z,0.30
2022-08-08T09:34:39.156Z,0.20
2022-08-08T09:37:58.827Z,0.20
2022-08-08T09:40:04.563Z,0.30
2022-08-08T09:42:43.790Z,0.13
2022-08-08T09:45:55.370Z,0.20
2022-08-08T09:48:16.014Z,0.20
2022-08-08T09:50:50.153Z,0.20
2022-08-08T09:53:24.791Z,0.20
2022-08-08T09:56:11.544Z,0.20
2022-08-08T09:58:44.620Z,0.20
2022-08-08T10:01:14.534Z,0.20
2022-08-08T10:03:42.165Z,0.20
2022-08-08T10:06:14.045Z,0.20
2022-08-08T10:08:49.432Z,0.20
2022-08-08T10:12:27.157Z,0.28
2022-08-08T10:14:10.795Z,0.20
2022-08-08T10:16:54.847Z,0.20
2022-08-08T10:19:21.300Z,0.20
2022-08-08T10:21:51.138Z,0.20
2022-08-08T10:24:28.570Z,0.10
2022-08-08T10:27:00.494Z,0.20
2022-08-08T10:29:43.839Z,0.20
2022-08-08T10:32:34.349Z,0.32
2022-08-08T10:35:11.839Z,0.30
2022-08-08T10:37:56.765Z,0.20
2022-08-08T10:40:30.792Z,0.13
2022-08-08T10:43:00.548Z,0.13
2022-08-08T10:45:28.376Z,0.20
2022-08-08T10:47:59.421Z,0.20
2022-08-08T10:50:36.047Z,0.20
2022-08-08T10:53:07.730Z,0.20
2022-08-08T10:55:45.762Z,0.20
2022-08-08T10:58:16.142Z,0.20
2022-08-08T11:00:52.501Z,0.20
2022-08-08T11:03:37.024Z,0.10
2022-08-08T11:06:16.225Z,0.20
2022-08-08T11:08:53.285Z,0.20
2022-08-08T11:11:32.289Z,0.28
2022-08-08T11:14:08.305Z,0.30
2022-08-08T11:16:43.323Z,0.30
2022-08-08T11:19:15.678Z,0.20
2022-08-08T11:21:55.254Z,0.25
2022-08-08T11:24:24.850Z,0.20
2022-08-08T11:26:56.915Z,0.10
2022-08-08T11:29:41.299Z,0.20
2022-08-08T11:32:13.346Z,0.13
2022-08-08T11:35:07.974Z,0.20
2022-08-08T11:38:36.976Z,0.20
2022-08-08T11:40:16.324Z,0.20
2022-08-08T11:42:49.057Z,0.38
2022-08-08T11:45:18.485Z,0.45
2022-08-08T11:48:04.548Z,0.15
2022-08-08T11:50:32.376Z,0.45
2022-08-08T11:53:00.918Z,0.20
2022-08-08T11:55:35.438Z,0.30
2022-08-08T11:58:14.633Z,0.20
2022-08-08T12:00:51.387Z,0.20
2022-08-08T12:03:21.129Z,0.20
2022-08-08T12:05:48.166Z,0.20
2022-08-08T12:08:14.708Z,0.17
2022-08-08T12:10:48.548Z,0.13
2022-08-08T12:13:16.358Z,0.20
2022-08-08T12:15:48.291Z,0.20
2022-08-08T12:18:16.075Z,0.20
2022-08-08T12:20:47.241Z,0.20
2022-08-08T12:23:30.162Z,0.20
2022-08-08T12:26:10.231Z,0.30
2022-08-08T12:28:54.966Z,0.32
2022-08-08T12:31:30.456Z,0.13
2022-08-08T12:34:06.058Z,0.20
2022-08-08T12:36:40.304Z,0.28
2022-08-08T12:39:13.678Z,0.20
2022-08-08T12:41:57.744Z,0.25
2022-08-08T12:44:32.780Z,0.30
2022-08-08T12:47:00.204Z,0.20
2022-08-08T12:49:43.400Z,0.30
2022-08-08T12:52:28.595Z,0.20
2022-08-08T12:55:03.187Z,0.30
2022-08-08T12:57:38.315Z,0.20
2022-08-08T13:00:33.982Z,0.20
2022-08-08T13:03:05.739Z,0.20
2022-08-08T13:06:03.468Z,0.30
2022-08-08T13:08:21.963Z,0.30
2022-08-08T13:10:58.295Z,0.20
2022-08-08T13:13:27.372Z,0.20
2022-08-08T13:15:55.015Z,0.30
2022-08-08T13:18:27.339Z,0.30
2022-08-08T13:20:56.069Z,0.30
2022-08-08T13:23:30.477Z,0.30
2022-08-08T13:26:01.524Z,0.22
2022-08-08T13:28:42.299Z,0.25
2022-08-08T13:31:11.949Z,0.30
2022-08-08T13:33:45.295Z,0.40
2022-08-08T13:36:12.151Z,0.30
2022-08-08T13:38:39.714Z,0.30
2022-08-08T13:41:06.820Z,0.30
2022-08-08T13:43:43.536Z,0.30
2022-08-08T13:46:26.563Z,0.35
2022-08-08T13:49:11.674Z,0.45
2022-08-08T13:51:51.411Z,0.50
2022-08-08T13:54:31.255Z,0.30
2022-08-08T13:57:01.243Z,0.43
2022-08-08T13:59:32.912Z,0.40
2022-08-08T14:02:03.953Z,0.40
2022-08-08T14:04:37.258Z,0.40
2022-08-08T14:10:04.733Z,0.50
2022-08-08T14:12:33.162Z,0.40
2022-08-08T14:15:00.863Z,0.40
2022-08-08T14:17:57.846Z,0.40
2022-08-08T14:20:56.526Z,0.40
2022-08-08T14:23:21.175Z,0.50
2022-08-08T14:26:04.011Z,0.40
2022-08-08T14:28:39.547Z,0.50
2022-08-08T14:31:10.443Z,0.30
2022-08-08T14:33:37.115Z,0.47
2022-08-08T14:36:09.609Z,0.40
2022-08-08T14:38:52.479Z,0.30
2022-08-08T14:41:53.232Z,0.40
2022-08-08T14:44:13.285Z,0.40
2022-08-08T14:46:46.125Z,0.30
2022-08-08T14:51:53.498Z,0.20
2022-08-08T14:54:29.216Z,0.50
2022-08-08T14:56:57.160Z,0.40
2022-08-08T14:59:44.349Z,0.32
2022-08-08T15:02:15.497Z,0.20
2022-08-08T15:04:42.271Z,0.35
2022-08-08T15:07:22.218Z,0.40
2022-08-08T15:09:49.511Z,0.30
2022-08-08T15:12:27.468Z,0.28
2022-08-08T15:15:01.238Z,0.20
2022-08-08T15:17:33.608Z,0.43
2022-08-08T15:20:03.671Z,0.30
2022-08-08T15:22:31.846Z,0.30
2022-08-08T15:24:58.349Z,0.32
2022-08-08T15:28:04.545Z,0.20
2022-08-08T15:30:12.260Z,0.30
2022-08-08T15:32:41.224Z,0.28
2022-08-08T15:35:09.970Z,0.28
2022-08-08T15:37:37.387Z,0.30
2022-08-08T15:40:04.307Z,0.30
2022-08-08T15:42:31.931Z,0.20
2022-08-08T15:44:59.269Z,0.28
2022-08-08T15:47:25.719Z,0.20
2022-08-08T15:49:53.341Z,0.30
2022-08-08T15:52:21.798Z,0.20
2022-08-08T15:54:51.827Z,0.30
2022-08-08T15:57:19.002Z,0.20
2022-08-08T16:00:05.804Z,0.25
2022-08-08T16:02:32.243Z,0.25
2022-08-08T16:05:00.506Z,0.30
2022-08-08T16:07:39.498Z,0.30
2022-08-08T16:13:14.406Z,0.38
2022-08-08T16:13:27.302Z,0.20
2022-08-08T16:15:59.285Z,0.32
2022-08-08T16:18:29.944Z,0.20
2022-08-08T16:21:00.232Z,0.20
2022-08-08T16:23:28.006Z,0.20
2022-08-08T16:26:03.850Z,0.20
2022-08-08T16:28:34.847Z,0.20
2022-08-08T16:31:06.375Z,0.30
2022-08-08T16:33:38.934Z,0.30
2022-08-08T16:36:08.598Z,0.28
2022-08-08T16:38:36.233Z,0.30
2022-08-08T16:41:11.072Z,0.20
2022-08-08T16:43:51.006Z,0.20
2022-08-08T16:46:44.903Z,0.20
2022-08-08T16:49:05.812Z,0.20
2022-08-08T16:55:04.481Z,0.30
2022-08-08T16:55:18.198Z,0.30
2022-08-08T16:57:40.694Z,0.20
2022-08-08T16:59:58.029Z,0.20
2022-08-08T17:02:38.636Z,0.20
2022-08-08T17:05:13.935Z,0.20
2022-08-08T17:07:41.893Z,0.20
2022-08-08T17:10:16.951Z,0.20
2022-08-08T17:12:47.030Z,0.30
2022-08-08T17:15:20.832Z,0.20
2022-08-08T17:18:03.562Z,0.20
2022-08-08T17:20:39.814Z,0.25
2022-08-08T17:23:18.309Z,0.10
2022-08-08T17:25:54.169Z,0.22
2022-08-08T17:28:28.859Z,0.20
2022-08-08T17:31:01.504Z,0.10
2022-08-08T17:34:37.466Z,0.20
2022-08-08T17:36:28.707Z,0.20
2022-08-08T17:39:04.949Z,0.30
2022-08-08T17:41:48.534Z,0.20
2022-08-08T17:44:26.763Z,0.22
2022-08-08T17:46:55.468Z,0.20
2022-08-08T17:49:24.909Z,0.10
2022-08-08T17:51:55.297Z,0.25
2022-08-08T17:54:22.355Z,0.20
2022-08-08T17:56:53.979Z,0.30
2022-08-08T17:59:23.417Z,0.20
2022-08-08T18:01:58.493Z,0.30
2022-08-08T18:04:28.681Z,0.20
2022-08-08T18:06:57.059Z,0.20
2022-08-08T18:09:24.277Z,0.22
2022-08-08T18:11:58.542Z,0.20
2022-08-08T18:14:25.789Z,0.30
2022-08-08T18:16:52.912Z,0.20
2022-08-08T18:19:21.699Z,0.20
2022-08-08T18:22:00.900Z,0.20
2022-08-08T18:24:30.157Z,0.32
2022-08-08T18:26:57.576Z,0.20
2022-08-08T18:29:33.523Z,0.20
2022-08-08T18:32:04.898Z,0.30
2022-08-08T18:34:32.948Z,0.30
2022-08-08T18:37:00.442Z,0.25
2022-08-08T18:39:28.071Z,0.40
2022-08-08T18:41:58.255Z,0.30
2022-08-08T18:44:27.680Z,0.30
2022-08-08T18:46:57.881Z,0.40
2022-08-08T18:49:32.635Z,0.28
2022-08-08T18:52:22.196Z,0.40
2022-08-08T18:54:59.466Z,0.30
2022-08-08T18:57:37.078Z,0.22
2022-08-08T19:00:15.442Z,0.30
2022-08-08T19:02:56.136Z,0.20
2022-08-08T19:05:32.199Z,0.20
2022-08-08T19:08:24.510Z,0.30
2022-08-08T19:10:55.346Z,0.30
2022-08-08T19:13:24.521Z,0.30
2022-08-08T19:15:52.070Z,0.30
2022-08-08T19:18:33.680Z,0.20
2022-08-08T19:21:29.045Z,0.30
2022-08-08T19:23:56.026Z,0.30
2022-08-08T19:26:30.584Z,0.30
2022-08-08T19:28:57.709Z,0.30
2022-08-08T19:31:31.600Z,0.38
2022-08-08T19:34:15.195Z,0.40
2022-08-08T19:36:52.006Z,0.40
2022-08-08T19:39:19.391Z,0.40
2022-08-08T19:41:46.202Z,0.40
2022-08-08T19:44:26.855Z,0.40
2022-08-08T19:47:01.663Z,0.30
2022-08-08T19:49:37.569Z,0.30
2022-08-08T19:52:04.875Z,0.40
2022-08-08T19:54:31.957Z,0.30
2022-08-08T19:56:58.897Z,0.32
2022-08-08T19:59:30.912Z,0.30
2022-08-08T20:02:05.139Z,0.43
2022-08-08T20:04:33.084Z,0.38
2022-08-08T20:07:05.534Z,0.40
2022-08-08T20:09:55.261Z,0.43
2022-08-08T20:12:32.558Z,0.43
2022-08-08T20:15:14.655Z,0.40
2022-08-08T20:17:43.939Z,0.50
2022-08-08T20:20:12.657Z,0.50
2022-08-08T20:22:46.124Z,0.30
2022-08-08T20:25:20.263Z,0.40
2022-08-08T20:27:49.319Z,0.43
2022-08-08T20:30:52.990Z,0.50
2022-08-08T20:33:04.541Z,0.50
2022-08-08T20:35:58.959Z,0.60
2022-08-08T20:38:32.035Z,0.40
2022-08-08T20:41:00.183Z,0.40
2022-08-08T20:43:43.453Z,0.70
2022-08-08T20:46:13.423Z,0.35
2022-08-08T20:48:39.911Z,0.57
2022-08-08T20:51:07.949Z,0.50
2022-08-08T20:53:57.951Z,0.50
2022-08-08T20:56:35.139Z,0.57
2022-08-08T20:59:05.838Z,0.60
2022-08-08T21:01:33.139Z,0.50
2022-08-08T21:04:19.598Z,0.55
2022-08-08T21:06:53.288Z,0.60
2022-08-08T21:09:20.630Z,0.90
2022-08-08T21:11:50.830Z,0.80
2022-08-08T21:14:30.298Z,0.40
2022-08-08T21:17:00.358Z,0.50
2022-08-08T21:19:44.370Z,0.65
2022-08-08T21:22:13.736Z,0.50
2022-08-08T21:24:41.770Z,0.70
2022-08-08T21:28:05.973Z,0.70
2022-08-08T21:30:12.135Z,0.60
2022-08-08T21:32:51.541Z,0.65
2022-08-08T21:36:17.032Z,0.70
2022-08-08T21:38:08.514Z,0.60
2022-08-08T21:40:56.273Z,1.02
2022-08-08T21:43:33.761Z,0.70
2022-08-08T21:48:12.899Z,0.80
2022-08-08T21:48:53.252Z,0.60
2022-08-08T21:54:32.648Z,0.60
2022-08-08T21:54:33.129Z,1.00
2022-08-08T21:56:54.816Z,1.00
2022-08-08T21:59:21.309Z,0.65
2022-08-08T22:01:52.501Z,0.80
2022-08-08T22:04:24.681Z,0.73
2022-08-08T22:06:51.878Z,0.77
2022-08-08T22:09:18.430Z,0.93
2022-08-08T22:12:02.931Z,0.75
2022-08-08T22:14:32.781Z,1.10
2022-08-08T22:17:00.824Z,0.80
2022-08-08T22:19:29.520Z,0.73
2022-08-08T22:21:56.567Z,0.60
2022-08-08T22:24:28.007Z,0.80
2022-08-08T22:27:01.205Z,0.60
2022-08-08T22:30:01.253Z,0.77
2022-08-08T22:32:15.823Z,0.90
2022-08-08T22:34:50.477Z,0.70
2022-08-08T22:37:27.927Z,0.80
2022-08-08T22:40:04.933Z,0.75
2022-08-08T22:42:34.481Z,0.90
2022-08-08T22:45:01.823Z,0.50
2022-08-08T22:47:37.730Z,0.80
2022-08-08T22:50:05.639Z,0.80
2022-08-08T22:54:19.472Z,0.70
2022-08-08T22:55:58.035Z,0.80
2022-08-08T22:58:22.187Z,0.70
2022-08-08T23:00:55.178Z,0.70
2022-08-08T23:03:21.712Z,0.70
2022-08-08T23:05:49.710Z,0.60
2022-08-08T23:08:18.003Z,0.70
2022-08-08T23:10:53.046Z,0.60
2022-08-08T23:13:22.376Z,0.57
2022-08-08T23:16:39.672Z,0.68
2022-08-08T23:18:40.244Z,0.52
2022-08-08T23:21:07.684Z,0.65
2022-08-08T23:23:48.795Z,0.60
2022-08-08T23:26:21.433Z,0.70
2022-08-08T23:28:48.299Z,0.60
2022-08-08T23:31:15.063Z,0.70
2022-08-08T23:34:17.562Z,0.55
2022-08-08T23:36:28.960Z,0.73
2022-08-08T23:38:55.475Z,0.60
2022-08-08T23:41:25.177Z,0.60
2022-08-08T23:43:56.757Z,0.57
2022-08-08T23:49:01.956Z,0.50
2022-08-08T23:49:18.003Z,0.57
2022-08-08T23:52:06.018Z,0.50
2022-08-08T23:54:41.666Z,0.47
2022-08-08T23:57:27.234Z,0.43
